Time;durP1;ratioP1;P1;durP2;ratioP2;P2;SDS_P1;SDS_P2;PMS_P1;PMS_P2;Temp;Humidity;BMP_temperature;BMP_pressure;BME280_temperature;BME280_humidity;BME280_pressure;Samples;Min_cycle;Max_cycle;Signal;HPM_P1;HPM_P2
2022/03/21 00:00:59;;;;;;;30.55;15.90;;;2.60;71.30;;;;;;5186337;28;20049;-77
2022/03/21 00:03:32;;;;;;;32.83;15.40;;;2.50;71.80;;;;;;5166911;28;20045;-76
2022/03/21 00:06:05;;;;;;;28.83;16.15;;;2.50;71.40;;;;;;5182836;28;20045;-77
2022/03/21 00:08:37;;;;;;;28.38;15.20;;;2.40;71.40;;;;;;5185880;28;20655;-77
2022/03/21 00:11:10;;;;;;;26.95;14.85;;;2.30;71.90;;;;;;5162237;28;20060;-77
2022/03/21 00:13:42;;;;;;;29.58;15.40;;;2.30;72.10;;;;;;5162573;28;20520;-77
2022/03/21 00:16:15;;;;;;;31.05;16.95;;;2.40;72.10;;;;;;5188831;28;20072;-77
2022/03/21 00:18:47;;;;;;;30.70;15.15;;;2.40;72.10;;;;;;5186299;28;20057;-77
2022/03/21 00:21:20;;;;;;;28.52;15.43;;;2.40;72.20;;;;;;5169559;28;20072;-77
2022/03/21 00:23:52;;;;;;;33.85;17.80;;;2.30;72.60;;;;;;5166327;28;20061;-77
2022/03/21 00:26:25;;;;;;;36.97;16.88;;;2.10;73.10;;;;;;5188207;28;20540;-77
2022/03/21 00:28:57;;;;;;;34.17;15.57;;;2.10;73.30;;;;;;5186906;28;20154;-77
2022/03/21 00:31:30;;;;;;;31.58;17.20;;;2.00;73.90;;;;;;5184596;28;20299;-77
2022/03/21 00:34:03;;;;;;;31.20;15.95;;;1.90;74.40;;;;;;5188139;28;20049;-79
2022/03/21 00:36:35;;;;;;;27.07;15.23;;;1.80;74.70;;;;;;5184450;28;20050;-77
2022/03/21 00:39:20;;;;;;;34.53;17.52;;;1.90;74.70;;;;;;5185826;28;20050;-77
2022/03/21 00:41:52;;;;;;;37.28;17.75;;;1.90;75.00;;;;;;5182605;28;20049;-76
2022/03/21 00:44:24;;;;;;;30.15;15.63;;;1.90;75.40;;;;;;5165428;28;20404;-77
2022/03/21 00:46:57;;;;;;;32.42;16.52;;;1.80;75.40;;;;;;5177808;28;20045;-77
2022/03/21 00:49:29;;;;;;;30.48;15.50;;;1.80;75.30;;;;;;5165304;28;20144;-78
2022/03/21 00:52:02;;;;;;;29.23;15.75;;;1.80;75.20;;;;;;5189880;28;20056;-77
2022/03/21 00:54:34;;;;;;;33.08;16.27;;;1.70;75.50;;;;;;5186285;28;20045;-77
2022/03/21 00:57:07;;;;;;;29.00;15.77;;;1.70;75.60;;;;;;5185923;28;20508;-77
2022/03/21 00:59:39;;;;;;;34.97;15.85;;;1.60;75.90;;;;;;5159722;28;20152;-77
2022/03/21 01:02:16;;;;;;;34.03;15.88;;;1.60;76.10;;;;;;5184357;28;21076;-77
2022/03/21 01:04:49;;;;;;;28.50;15.75;;;1.60;76.00;;;;;;5191369;28;20513;-77
2022/03/21 01:07:21;;;;;;;32.13;15.63;;;1.70;75.90;;;;;;5177537;28;20041;-77
2022/03/21 01:09:53;;;;;;;34.17;16.75;;;1.60;76.20;;;;;;5188553;28;20049;-76
2022/03/21 01:12:27;;;;;;;29.52;15.63;;;1.50;76.40;;;;;;5176195;28;20056;-78
2022/03/21 01:15:00;;;;;;;31.75;16.58;;;1.50;76.50;;;;;;5173955;28;20072;-77
2022/03/21 01:17:33;;;;;;;28.23;14.57;;;1.60;76.20;;;;;;5179663;28;20045;-77
2022/03/21 01:20:06;;;;;;;32.67;16.33;;;1.50;76.40;;;;;;5195338;28;20060;-76
2022/03/21 01:22:38;;;;;;;31.93;15.87;;;1.40;76.70;;;;;;5165696;28;20505;-77
2022/03/21 01:25:12;;;;;;;33.05;15.93;;;1.40;76.80;;;;;;5187282;28;20053;-76
2022/03/21 01:27:45;;;;;;;29.17;15.38;;;1.40;76.60;;;;;;5152401;28;20064;-77
2022/03/21 01:30:18;;;;;;;33.72;16.42;;;1.40;76.80;;;;;;5166110;28;20516;-76
2022/03/21 01:32:51;;;;;;;29.40;14.95;;;1.30;76.70;;;;;;5183319;28;20416;-78
2022/03/21 01:35:23;;;;;;;30.38;15.68;;;1.40;76.70;;;;;;5166618;28;20485;-79
2022/03/21 01:37:55;;;;;;;27.65;15.40;;;1.30;77.00;;;;;;5165248;28;20049;-77
2022/03/21 01:40:28;;;;;;;26.80;15.30;;;1.30;77.00;;;;;;5188542;28;20587;-77
2022/03/21 01:43:00;;;;;;;33.05;17.05;;;1.30;77.10;;;;;;5180303;28;20049;-77
2022/03/21 01:45:33;;;;;;;29.98;15.85;;;1.30;76.80;;;;;;5170925;28;20041;-77
2022/03/21 01:48:07;;;;;;;30.75;15.70;;;1.30;76.90;;;;;;5163673;28;20493;-77
2022/03/21 01:50:41;;;;;;;;;;;1.20;77.10;;;;;;5168686;28;20052;-78
2022/03/21 01:56:05;;;;;;;26.38;15.30;;;1.10;77.40;;;;;;5179889;28;20421;-77
2022/03/21 01:58:37;;;;;;;30.98;16.02;;;1.00;77.50;;;;;;5170277;28;20037;-77
2022/03/21 02:01:11;;;;;;;30.52;15.50;;;1.10;77.60;;;;;;5188387;28;20502;-78
2022/03/21 02:03:45;;;;;;;29.15;15.18;;;1.10;77.60;;;;;;5177077;28;20045;-78
2022/03/21 02:06:17;;;;;;;33.20;15.88;;;1.00;77.80;;;;;;5188277;28;20063;-78
2022/03/21 02:08:50;;;;;;;27.52;14.93;;;1.00;78.00;;;;;;5167349;28;20523;-77
2022/03/21 02:11:23;;;;;;;29.17;15.35;;;1.10;78.10;;;;;;5149525;28;20045;-78
2022/03/21 02:13:57;;;;;;;27.98;15.23;;;1.10;77.90;;;;;;5190233;28;20044;-78
2022/03/21 02:16:30;;;;;;;;;;;1.10;77.90;;;;;;5166454;28;20053;-77
2022/03/21 02:19:15;;;;;;;30.10;15.52;;;0.90;79.50;;;;;;5166508;28;19944;-77
2022/03/21 02:22:20;;;;;;;29.90;14.93;;;0.80;78.40;;;;;;5177230;28;20060;-78
2022/03/21 02:25:28;;;;;;;32.80;16.30;;;0.80;78.80;;;;;;5163083;28;21311;-77
2022/03/21 02:28:14;;;;;;;30.95;15.35;;;0.80;79.20;;;;;;5145599;28;20053;-78
2022/03/21 02:30:48;;;;;;;31.45;16.35;;;0.70;79.30;;;;;;5167548;28;20623;-77
2022/03/21 02:33:21;;;;;;;32.22;16.35;;;0.70;79.20;;;;;;5125226;28;20048;-78
2022/03/21 02:35:55;;;;;;;29.08;15.63;;;0.70;79.30;;;;;;5147175;28;20064;-78
2022/03/21 02:38:28;;;;;;;33.20;17.80;;;0.70;79.70;;;;;;5157770;28;20068;-77
2022/03/21 02:41:01;;;;;;;31.90;15.18;;;0.70;79.50;;;;;;5184659;28;20037;-78
2022/03/21 02:43:49;;;;;;;28.37;15.90;;;0.70;79.40;;;;;;5177542;28;20049;-79
2022/03/21 02:46:22;;;;;;;32.25;16.05;;;0.70;79.80;;;;;;5144303;28;20072;-77
2022/03/21 02:48:56;;;;;;;32.75;16.20;;;0.70;79.20;;;;;;5149156;28;20054;-78
2022/03/21 02:51:31;;;;;;;31.63;16.27;;;0.80;78.80;;;;;;5179176;28;20050;-78
2022/03/21 02:54:04;;;;;;;26.00;14.63;;;0.70;78.90;;;;;;5186155;28;20458;-77
2022/03/21 02:56:37;;;;;;;30.17;15.77;;;0.60;79.10;;;;;;5170898;28;20064;-77
2022/03/21 02:59:09;;;;;;;35.57;16.10;;;0.60;79.50;;;;;;5144482;28;20049;-78
2022/03/21 03:01:42;;;;;;;29.30;15.43;;;0.70;79.60;;;;;;5186482;28;20136;-78
2022/03/21 03:04:15;;;;;;;33.53;15.98;;;0.60;79.60;;;;;;5163869;28;20049;-77
2022/03/21 03:06:48;;;;;;;29.48;15.82;;;0.50;80.20;;;;;;5165358;28;20049;-77
2022/03/21 03:09:21;;;;;;;35.38;16.52;;;0.50;80.00;;;;;;5190676;28;20041;-78
2022/03/21 03:11:53;;;;;;;28.33;16.08;;;0.50;79.90;;;;;;5186961;28;22374;-78
2022/03/21 03:14:26;;;;;;;30.48;16.25;;;0.50;79.80;;;;;;5186855;28;20072;-78
2022/03/21 03:16:58;;;;;;;34.75;15.75;;;0.50;79.60;;;;;;5171311;28;20046;-78
2022/03/21 03:19:31;;;;;;;34.15;15.85;;;0.50;79.80;;;;;;5175192;28;20472;-76
2022/03/21 03:22:04;;;;;;;29.65;15.95;;;0.40;80.00;;;;;;5163290;28;20042;-77
2022/03/21 03:24:39;;;;;;;32.60;15.45;;;0.40;80.40;;;;;;5190690;28;20629;-77
2022/03/21 03:27:11;;;;;;;31.98;16.17;;;0.30;80.60;;;;;;5184485;28;20070;-78
2022/03/21 03:29:44;;;;;;;34.55;17.10;;;0.30;80.80;;;;;;5168635;28;20453;-78
2022/03/21 03:32:16;;;;;;;30.33;15.87;;;0.30;80.90;;;;;;5189774;28;20053;-78
2022/03/21 03:34:49;;;;;;;30.50;16.17;;;0.30;80.80;;;;;;5186399;28;20041;-78
2022/03/21 03:37:21;;;;;;;32.90;15.60;;;0.20;81.00;;;;;;5170704;28;20443;-78
2022/03/21 03:39:54;;;;;;;28.17;15.60;;;0.30;81.00;;;;;;5183960;28;20054;-76
2022/03/21 03:42:26;;;;;;;32.03;16.00;;;0.30;81.20;;;;;;5185735;28;20053;-76
2022/03/21 03:44:59;;;;;;;30.00;16.88;;;0.20;81.30;;;;;;5182977;28;21255;-77
2022/03/21 03:47:31;;;;;;;30.35;15.40;;;0.20;81.50;;;;;;5185196;28;20044;-77
2022/03/21 03:50:04;;;;;;;32.47;17.38;;;0.20;81.60;;;;;;5187013;28;20038;-77
2022/03/21 03:52:36;;;;;;;39.67;18.27;;;0.20;81.70;;;;;;5174780;28;20045;-78
2022/03/21 03:55:09;;;;;;;30.00;16.83;;;0.20;81.80;;;;;;5189289;28;20045;-78
2022/03/21 03:57:41;;;;;;;27.60;15.57;;;0.10;81.70;;;;;;5149758;28;20049;-78
2022/03/21 04:00:16;;;;;;;32.33;16.40;;;0.10;81.70;;;;;;5190226;28;20041;-77
2022/03/21 04:05:40;;;;;;;31.10;15.15;;;0.20;81.50;;;;;;5184601;28;20521;-78
2022/03/21 04:08:12;;;;;;;28.35;15.68;;;0.20;81.60;;;;;;5172561;28;20049;-77
2022/03/21 04:10:44;;;;;;;27.02;14.85;;;0.20;81.60;;;;;;5168357;28;20045;-77
2022/03/21 04:13:17;;;;;;;34.50;17.00;;;0.30;81.40;;;;;;5185327;28;20046;-77
2022/03/21 04:15:49;;;;;;;28.77;15.98;;;0.30;81.30;;;;;;5188169;28;20221;-75
2022/03/21 04:18:22;;;;;;;32.90;15.48;;;0.30;81.40;;;;;;5171456;28;20271;-78
2022/03/21 04:21:14;;;;;;;30.70;15.68;;;0.20;81.00;;;;;;5182581;28;20398;-76
2022/03/21 04:23:47;;;;;;;32.78;15.75;;;0.20;80.80;;;;;;5184568;28;20045;-76
2022/03/21 04:26:19;;;;;;;30.77;15.98;;;0.20;81.20;;;;;;5188579;28;20412;-76
2022/03/21 04:28:52;;;;;;;29.45;16.00;;;0.10;81.30;;;;;;5167375;28;20045;-76
2022/03/21 04:31:24;;;;;;;31.42;15.88;;;0.10;81.60;;;;;;5168813;28;20050;-75
2022/03/21 04:33:57;;;;;;;33.03;17.13;;;0.10;81.70;;;;;;5185102;28;20428;-75
2022/03/21 04:36:29;;;;;;;30.13;16.13;;;0.00;81.90;;;;;;5160891;28;20315;-76
2022/03/21 04:39:03;;;;;;;32.63;16.02;;;0.00;82.20;;;;;;5185437;28;20045;-77
2022/03/21 04:41:35;;;;;;;;;;;0.00;82.20;;;;;;5191877;28;20042;-76
2022/03/21 04:44:08;;;;;;;33.80;17.10;;;-0.10;83.70;;;;;;5175368;28;19929;-75
2022/03/21 04:46:41;;;;;;;29.58;16.13;;;-0.10;81.90;;;;;;5160025;28;20428;-75
2022/03/21 04:49:13;;;;;;;32.83;15.65;;;-0.10;82.10;;;;;;5169999;28;20384;-77
2022/03/21 04:51:46;;;;;;;32.83;16.58;;;-0.10;82.10;;;;;;5167890;28;20057;-76
2022/03/21 04:54:18;;;;;;;31.88;15.85;;;-0.20;82.30;;;;;;5148894;28;20053;-78
2022/03/21 04:56:50;;;;;;;31.58;16.13;;;-0.10;82.80;;;;;;5181327;28;20068;-77
2022/03/21 04:59:23;;;;;;;29.08;16.75;;;-0.10;82.40;;;;;;5186452;28;20448;-77
2022/03/21 05:01:55;;;;;;;31.08;15.95;;;-0.10;82.20;;;;;;5128394;28;20057;-77
2022/03/21 05:04:28;;;;;;;33.60;17.00;;;-0.20;82.00;;;;;;5180887;28;20037;-77
2022/03/21 05:07:00;;;;;;;30.80;16.10;;;-0.20;82.40;;;;;;5165869;28;20064;-76
2022/03/21 05:09:33;;;;;;;32.58;16.42;;;-0.30;82.70;;;;;;5165405;28;20045;-77
2022/03/21 05:12:06;;;;;;;34.03;16.35;;;-0.30;82.80;;;;;;5167050;28;20528;-76
2022/03/21 05:14:39;;;;;;;33.90;16.58;;;-0.30;83.10;;;;;;5171521;28;20045;-74
2022/03/21 05:17:12;;;;;;;30.08;16.13;;;-0.30;83.20;;;;;;5178547;28;20304;-74
2022/03/21 05:19:45;;;;;;;36.08;16.70;;;-0.20;83.20;;;;;;5185325;28;20056;-75
2022/03/21 05:22:17;;;;;;;34.35;16.60;;;-0.20;83.10;;;;;;5167805;28;20045;-75
2022/03/21 05:36:14;;;;;;;33.60;15.80;;;-0.40;83.80;;;;;;5156223;28;20046;-75
2022/03/21 05:38:47;;;;;;;31.88;16.08;;;-0.40;83.70;;;;;;5156287;28;20519;-74
2022/03/21 05:41:19;;;;;;;32.10;16.42;;;-0.30;83.80;;;;;;5176972;28;20511;-74
2022/03/21 05:43:51;;;;;;;34.70;15.77;;;-0.30;84.00;;;;;;5152148;28;20071;-74
2022/03/21 05:46:24;;;;;;;31.85;16.52;;;-0.30;84.00;;;;;;5176546;28;20057;-75
2022/03/21 05:49:00;;;;;;;33.40;17.52;;;-0.20;83.80;;;;;;5182772;28;20052;-75
2022/03/21 05:51:35;;;;;;;33.75;17.45;;;-0.10;83.70;;;;;;5153195;28;20057;-75
2022/03/21 05:54:13;;;;;;;32.78;17.38;;;-0.10;83.50;;;;;;5156421;28;20056;-75
2022/03/21 05:56:46;;;;;;;30.23;16.30;;;-0.10;83.60;;;;;;5157357;28;20053;-75
2022/03/21 06:02:09;;;;;;;36.60;17.38;;;0.00;83.70;;;;;;5181411;28;20041;-74
2022/03/21 06:04:43;;;;;;;32.60;17.45;;;0.10;83.30;;;;;;5185511;28;20057;-74
2022/03/21 06:07:17;;;;;;;;;;;0.20;83.30;;;;;;5172451;28;20049;-74
2022/03/21 06:09:49;;;;;;;35.28;16.90;;;0.10;85.20;;;;;;5152715;28;19928;-75
2022/03/21 06:12:22;;;;;;;31.55;17.52;;;0.30;83.20;;;;;;5187282;28;20049;-75
2022/03/21 06:14:54;;;;;;;35.55;16.77;;;0.40;83.20;;;;;;5177680;28;20056;-74
2022/03/21 06:17:27;;;;;;;28.85;15.77;;;0.50;83.00;;;;;;5161276;28;20060;-74
2022/03/21 06:19:59;;;;;;;33.70;17.07;;;0.50;82.70;;;;;;5194805;28;20053;-75
2022/03/21 06:22:32;;;;;;;39.78;18.05;;;0.50;82.50;;;;;;5146367;28;20755;-75
2022/03/21 06:25:05;;;;;;;34.45;18.05;;;0.70;82.60;;;;;;5135953;28;20068;-75
2022/03/21 06:27:39;;;;;;;35.03;18.35;;;0.70;82.50;;;;;;5177469;28;20053;-75
2022/03/21 06:30:12;;;;;;;44.03;21.40;;;0.90;82.60;;;;;;5173723;28;20033;-75
2022/03/21 06:32:44;;;;;;;40.30;20.20;;;1.00;82.20;;;;;;5181845;28;20037;-76
2022/03/21 06:35:17;;;;;;;42.47;19.43;;;1.10;81.80;;;;;;5162121;28;20049;-76
2022/03/21 06:37:50;;;;;;;46.80;20.42;;;1.10;81.40;;;;;;5180727;28;21207;-74
2022/03/21 06:40:25;;;;;;;38.10;17.70;;;1.30;81.30;;;;;;5173240;28;20053;-75
2022/03/21 06:42:57;;;;;;;41.85;20.30;;;1.40;80.80;;;;;;5181220;28;20072;-75
2022/03/21 06:45:29;;;;;;;39.63;17.98;;;1.50;80.30;;;;;;5182551;28;20049;-75
2022/03/21 06:48:02;;;;;;;46.42;18.65;;;1.70;80.50;;;;;;5185167;28;20439;-76
2022/03/21 06:50:35;;;;;;;37.25;18.90;;;1.80;80.00;;;;;;5160441;28;20049;-75
2022/03/21 06:53:07;;;;;;;44.78;18.63;;;2.00;79.20;;;;;;5158630;28;20046;-75
2022/03/21 06:55:41;;;;;;;39.92;17.48;;;2.00;78.80;;;;;;5169153;28;20053;-74
2022/03/21 07:01:22;;;;;;;36.65;19.80;;;2.40;78.50;;;;;;5144594;28;20066;-71
2022/03/21 07:03:56;;;;;;;31.52;17.42;;;2.50;77.50;;;;;;5142546;28;20050;-72
2022/03/21 07:06:28;;;;;;;37.50;19.55;;;2.60;77.00;;;;;;5121811;28;20043;-71
2022/03/21 07:09:01;;;;;;;39.72;18.88;;;2.70;76.40;;;;;;5190903;23;20062;-74
2022/03/21 07:11:35;;;;;;;43.45;20.35;;;2.90;76.40;;;;;;5195292;28;25593;-73
2022/03/21 07:14:07;;;;;;;;;;;3.00;76.70;;;;;;5189365;28;20049;-73
2022/03/21 07:16:39;;;;;;;42.90;20.50;;;3.10;76.70;;;;;;5193971;28;19921;-74
2022/03/21 07:19:12;;;;;;;38.80;19.95;;;3.20;74.90;;;;;;5184954;28;20125;-74
2022/03/21 07:21:45;;;;;;;36.10;19.73;;;3.40;74.90;;;;;;5200741;28;20056;-74
2022/03/21 07:24:18;;;;;;;36.13;19.30;;;3.50;74.50;;;;;;5191812;28;20053;-74
2022/03/21 07:26:50;;;;;;;34.88;18.63;;;3.60;73.90;;;;;;5179708;28;20053;-74
2022/03/21 07:29:23;;;;;;;31.75;18.27;;;3.70;73.00;;;;;;5191722;28;20508;-74
2022/03/21 07:31:57;;;;;;;38.65;18.20;;;3.80;73.00;;;;;;5194543;28;20045;-73
2022/03/21 07:34:30;;;;;;;;;;;4.00;72.70;;;;;;5193785;28;20041;-72
2022/03/21 07:37:03;;;;;;;33.13;17.75;;;3.90;71.50;;;;;;5180083;28;19929;-72
2022/03/21 07:39:37;;;;;;;37.75;18.00;;;4.00;72.00;;;;;;5189428;28;20068;-72
2022/03/21 07:42:14;;;;;;;33.63;17.15;;;4.20;71.50;;;;;;5175065;28;20054;-71
2022/03/21 07:47:37;;;;;;;33.42;17.08;;;4.50;70.70;;;;;;5183334;28;20056;-69
2022/03/21 07:50:10;;;;;;;33.60;17.05;;;4.70;70.60;;;;;;5177027;28;20064;-72
2022/03/21 07:52:43;;;;;;;32.78;18.15;;;4.80;69.50;;;;;;5179825;28;20057;-72
2022/03/21 07:55:15;;;;;;;28.50;16.67;;;4.90;68.70;;;;;;5183517;28;20037;-72
2022/03/21 07:57:47;;;;;;;31.20;18.05;;;5.10;68.20;;;;;;5172188;28;20378;-72
2022/03/21 08:00:20;;;;;;;32.13;18.23;;;5.30;68.10;;;;;;5176970;28;20041;-74
2022/03/21 08:02:53;;;;;;;31.98;16.98;;;5.50;67.70;;;;;;5165726;28;20060;-73
2022/03/21 08:05:28;;;;;;;28.35;16.98;;;5.70;67.00;;;;;;5181328;28;20045;-72
2022/03/21 08:08:00;;;;;;;31.48;16.48;;;5.90;67.00;;;;;;5182860;28;20057;-72
2022/03/21 08:10:34;;;;;;;31.27;17.15;;;6.00;66.30;;;;;;5179656;28;20045;-72
2022/03/21 08:13:08;;;;;;;30.00;16.75;;;6.10;65.10;;;;;;5169799;28;20057;-72
2022/03/21 08:15:41;;;;;;;30.17;17.73;;;6.20;64.90;;;;;;5173148;28;20803;-72
2022/03/21 08:18:15;;;;;;;36.70;16.80;;;6.30;64.80;;;;;;5192657;28;20058;-72
2022/03/21 08:20:47;;;;;;;;;;;6.30;64.30;;;;;;5175567;28;20604;-71
2022/03/21 08:23:19;;;;;;;36.38;19.60;;;6.40;63.20;;;;;;5184389;28;19928;-72
2022/03/21 08:25:56;;;;;;;33.38;17.42;;;6.50;63.70;;;;;;5178019;28;20052;-73
2022/03/21 08:28:28;;;;;;;33.30;17.42;;;6.60;63.50;;;;;;5165636;28;20049;-72
2022/03/21 08:31:00;;;;;;;35.50;16.75;;;6.70;63.40;;;;;;5168188;28;20057;-73
2022/03/21 08:33:33;;;;;;;37.78;17.42;;;6.80;63.50;;;;;;5170988;28;20421;-73
2022/03/21 08:36:06;;;;;;;34.35;17.67;;;6.90;63.50;;;;;;5172292;28;20045;-72
2022/03/21 08:38:40;;;;;;;30.63;17.70;;;7.00;62.80;;;;;;5180548;28;20401;-72
2022/03/21 08:41:12;;;;;;;33.38;16.95;;;7.00;62.20;;;;;;4470548;28;10000215;-72
2022/03/21 08:43:45;;;;;;;33.97;17.03;;;7.00;61.90;;;;;;5174396;28;20053;-73
2022/03/21 08:46:18;;;;;;;31.75;17.83;;;7.00;62.20;;;;;;5170497;28;20049;-73
2022/03/21 08:52:03;;;;;;;35.00;18.00;;;7.30;62.60;;;;;;5172736;28;20033;-72
2022/03/21 08:54:36;;;;;;;34.55;17.58;;;7.40;61.80;;;;;;5168196;28;20490;-73
2022/03/21 08:57:10;;;;;;;33.95;17.27;;;7.50;61.20;;;;;;5148601;28;20049;-74
2022/03/21 08:59:42;;;;;;;;;;;7.40;61.00;;;;;;5172933;28;20041;-75
2022/03/21 09:02:17;;;;;;;32.80;17.83;;;7.40;60.40;;;;;;5171895;28;20398;-74
2022/03/21 09:04:50;;;;;;;32.10;16.27;;;7.50;61.30;;;;;;5175324;28;20058;-74
2022/03/21 09:07:23;;;;;;;29.52;17.67;;;7.70;61.30;;;;;;5160521;28;20050;-74
2022/03/21 09:09:55;;;;;;;31.88;16.35;;;7.90;60.10;;;;;;5151128;28;20064;-73
2022/03/21 09:12:29;;;;;;;32.03;17.52;;;8.00;59.80;;;;;;5170732;28;20049;-73
2022/03/21 09:15:01;;;;;;;33.78;18.83;;;8.10;59.90;;;;;;5161784;28;20061;-74
2022/03/21 09:17:37;;;;;;;32.20;16.58;;;8.20;59.80;;;;;;5157586;28;20053;-74
2022/03/21 09:20:10;;;;;;;37.13;17.23;;;8.30;59.30;;;;;;5163144;28;20050;-73
2022/03/21 09:22:43;;;;;;;31.25;19.05;;;8.40;59.10;;;;;;5175306;28;20049;-74
2022/03/21 09:25:17;;;;;;;29.42;16.40;;;8.60;58.60;;;;;;5168691;28;20041;-73
2022/03/21 09:27:50;;;;;;;31.85;16.75;;;8.70;58.90;;;;;;5161869;28;20064;-74
2022/03/21 09:30:23;;;;;;;33.08;17.05;;;8.80;58.30;;;;;;5172763;28;20058;-71
2022/03/21 09:32:56;;;;;;;32.25;18.92;;;8.80;58.00;;;;;;5181074;28;20461;-73
2022/03/21 09:35:29;;;;;;;34.17;18.05;;;8.80;57.90;;;;;;5161436;28;20045;-73
2022/03/21 09:38:03;;;;;;;32.88;18.55;;;8.90;57.70;;;;;;5185618;28;20497;-74
2022/03/21 09:40:35;;;;;;;34.83;18.15;;;8.90;58.20;;;;;;5171501;28;20056;-72
2022/03/21 09:43:10;;;;;;;30.15;17.50;;;9.10;57.70;;;;;;5183847;28;20064;-73
2022/03/21 09:45:43;;;;;;;38.05;18.83;;;9.20;57.50;;;;;;5190666;28;20136;-74
2022/03/21 09:48:18;;;;;;;34.78;17.05;;;9.20;57.30;;;;;;5180927;28;20049;-74
2022/03/21 09:50:52;;;;;;;29.92;17.55;;;9.40;57.50;;;;;;5154110;28;20667;-75
2022/03/21 09:53:25;;;;;;;36.78;18.25;;;9.60;57.20;;;;;;5170573;28;20052;-73
2022/03/21 09:55:58;;;;;;;29.38;17.45;;;9.60;56.70;;;;;;5181722;28;20045;-74
2022/03/21 09:58:30;;;;;;;28.27;16.70;;;9.70;56.40;;;;;;5181820;28;20045;-75
2022/03/21 10:01:02;;;;;;;29.90;16.73;;;9.80;56.20;;;;;;5181693;28;20053;-74
2022/03/21 10:03:43;;;;;;;36.67;18.10;;;9.80;56.20;;;;;;5189415;28;20069;-75
2022/03/21 10:06:36;;;;;;;33.10;17.70;;;9.90;56.20;;;;;;5183480;28;20504;-74
2022/03/21 10:09:17;;;;;;;30.95;17.90;;;9.80;55.10;;;;;;5181310;28;20072;-74
2022/03/21 10:11:57;;;;;;;37.08;17.20;;;9.80;55.70;;;;;;5177830;28;20965;-74
2022/03/21 10:14:33;;;;;;;32.40;17.25;;;9.80;56.00;;;;;;5181855;28;20049;-74
2022/03/21 10:17:12;;;;;;;28.80;17.70;;;10.00;55.60;;;;;;5176544;28;20053;-73
2022/03/21 10:19:52;;;;;;;35.13;17.63;;;10.10;55.40;;;;;;5152530;28;20425;-74
2022/03/21 10:22:43;;;;;;;34.55;18.08;;;10.20;56.00;;;;;;5192257;28;21072;-73
2022/03/21 10:25:20;;;;;;;32.58;17.60;;;10.30;54.50;;;;;;5189523;28;20053;-73
2022/03/21 10:27:53;;;;;;;32.10;17.23;;;10.40;54.90;;;;;;5176825;28;21325;-73
2022/03/21 10:30:26;;;;;;;27.83;15.85;;;10.50;54.90;;;;;;5194909;28;20037;-74
2022/03/21 10:32:59;;;;;;;31.55;17.40;;;10.60;54.60;;;;;;5175207;28;20057;-74
2022/03/21 10:35:32;;;;;;;31.98;17.60;;;10.60;54.10;;;;;;5172307;28;20049;-73
2022/03/21 10:38:05;;;;;;;29.58;17.05;;;10.70;54.60;;;;;;5197344;28;20041;-74
2022/03/21 10:40:40;;;;;;;36.10;17.70;;;10.80;54.20;;;;;;5181227;28;20064;-74
2022/03/21 10:43:15;;;;;;;31.50;17.00;;;10.90;53.50;;;;;;5184077;28;20049;-73
2022/03/21 10:45:53;;;;;;;29.45;17.40;;;10.80;53.70;;;;;;5179620;28;20053;-73
2022/03/21 10:48:29;;;;;;;32.53;17.05;;;10.90;53.40;;;;;;5197250;28;20049;-73
2022/03/21 10:51:03;;;;;;;32.20;17.45;;;11.00;53.10;;;;;;5214772;28;20034;-72
2022/03/21 10:53:40;;;;;;;28.20;16.15;;;11.20;53.00;;;;;;5201387;28;20053;-74
2022/03/21 10:56:13;;;;;;;26.20;15.35;;;11.40;53.10;;;;;;5191821;28;20518;-75
2022/03/21 10:58:47;;;;;;;32.53;15.98;;;11.50;53.10;;;;;;5192085;28;20064;-72
2022/03/21 11:01:26;;;;;;;30.48;16.77;;;11.70;52.30;;;;;;5161102;28;20555;-69
2022/03/21 11:04:02;;;;;;;29.83;15.93;;;11.70;52.30;;;;;;5180625;28;20068;-71
2022/03/21 11:06:35;;;;;;;31.25;16.65;;;11.80;51.60;;;;;;5174748;28;20437;-74
2022/03/21 11:09:07;;;;;;;34.33;17.00;;;11.90;51.60;;;;;;5172959;28;20049;-70
2022/03/21 11:11:40;;;;;;;29.17;16.03;;;11.90;51.00;;;;;;5163896;28;20041;-71
2022/03/21 11:14:13;;;;;;;;;;;12.00;50.90;;;;;;4491333;28;10000442;-71
2022/03/21 11:16:46;;;;;;;29.85;15.95;;;12.00;50.20;;;;;;5195384;28;19933;-72
2022/03/21 11:19:21;;;;;;;34.05;16.25;;;12.20;51.40;;;;;;5180744;28;20064;-74
2022/03/21 11:21:54;;;;;;;28.83;16.05;;;12.50;50.50;;;;;;5191730;28;20055;-73
2022/03/21 11:24:29;;;;;;;35.72;17.73;;;12.70;50.10;;;;;;5152292;28;20068;-71
2022/03/21 11:27:31;;;;;;;29.25;16.63;;;13.00;50.00;;;;;;5182036;28;20129;-74
2022/03/21 11:30:38;;;;;;;31.90;17.05;;;13.20;48.90;;;;;;5189610;28;20731;-73
2022/03/21 11:33:22;;;;;;;28.40;16.77;;;13.50;48.70;;;;;;5158741;28;20386;-74
2022/03/21 11:36:05;;;;;;;34.63;18.42;;;13.60;47.50;;;;;;5174116;28;20064;-74
2022/03/21 11:38:47;;;;;;;28.55;16.95;;;13.80;47.60;;;;;;5177699;28;20068;-74
2022/03/21 11:41:26;;;;;;;26.85;16.77;;;14.30;49.50;;;;;;5173406;28;20049;-74
2022/03/21 11:44:04;;;;;;;28.83;16.75;;;15.10;47.50;;;;;;5164091;28;20060;-74
2022/03/21 11:46:38;;;;;;;25.30;16.83;;;15.80;45.40;;;;;;5159691;28;20045;-74
2022/03/21 11:49:19;;;;;;;26.17;16.45;;;16.50;45.70;;;;;;5168770;28;20053;-73
2022/03/21 11:51:55;;;;;;;28.25;17.58;;;17.10;43.10;;;;;;5189667;28;20064;-75
2022/03/21 11:54:30;;;;;;;29.85;16.45;;;17.50;42.40;;;;;;5146276;28;20468;-74
2022/03/21 11:57:23;;;;;;;29.50;16.92;;;17.80;41.70;;;;;;5187419;28;20053;-74
2022/03/21 11:59:58;;;;;;;29.58;17.08;;;18.00;40.60;;;;;;5193082;28;20041;-73
2022/03/21 12:02:31;;;;;;;27.23;15.52;;;18.20;40.30;;;;;;5187073;28;20053;-75
2022/03/21 12:05:06;;;;;;;27.95;17.40;;;18.20;40.50;;;;;;5190359;28;20068;-73
2022/03/21 12:07:41;;;;;;;24.77;15.85;;;18.60;40.80;;;;;;5180077;28;20052;-76
2022/03/21 12:10:38;;;;;;;33.72;17.15;;;18.80;39.80;;;;;;5185031;28;20037;-73
2022/03/21 12:13:11;;;;;;;28.77;17.98;;;19.20;39.00;;;;;;5183641;28;20064;-76
2022/03/21 12:15:52;;;;;;;30.10;16.10;;;19.40;40.30;;;;;;5176927;28;20401;-73
2022/03/21 12:19:00;;;;;;;26.33;16.40;;;19.70;36.70;;;;;;5168552;28;20559;-75
2022/03/21 12:21:32;;;;;;;27.15;16.13;;;19.50;36.60;;;;;;5150607;28;20046;-75
2022/03/21 12:24:17;;;;;;;29.65;15.07;;;19.60;37.80;;;;;;5189688;28;20052;-74
2022/03/21 12:26:53;;;;;;;30.70;16.10;;;19.90;36.30;;;;;;5188475;28;20521;-75
2022/03/21 12:29:33;;;;;;;24.85;17.45;;;19.80;37.10;;;;;;5185502;28;20049;-75
2022/03/21 12:32:25;;;;;;;26.80;15.88;;;19.40;37.10;;;;;;5184815;28;20046;-76
2022/03/21 12:34:58;;;;;;;30.63;16.13;;;19.30;36.80;;;;;;5194966;28;20045;-74
2022/03/21 12:37:31;;;;;;;27.48;16.63;;;20.10;37.70;;;;;;5186734;28;20048;-75
2022/03/21 12:40:09;;;;;;;29.50;17.42;;;20.50;36.60;;;;;;5180899;28;20049;-74
2022/03/21 12:42:48;;;;;;;28.58;17.55;;;21.00;36.10;;;;;;5196427;28;20625;-75
2022/03/21 12:45:24;;;;;;;27.38;16.17;;;21.30;36.10;;;;;;5182422;28;20033;-75
2022/03/21 12:48:05;;;;;;;27.88;16.80;;;21.40;35.30;;;;;;5184183;28;20053;-74
2022/03/21 12:50:38;;;;;;;25.27;16.13;;;21.10;35.20;;;;;;5163104;28;20056;-73
2022/03/21 12:53:12;;;;;;;23.08;16.20;;;21.20;35.70;;;;;;5168871;28;20037;-74
2022/03/21 12:55:58;;;;;;;25.23;16.98;;;21.10;35.80;;;;;;5180412;28;20521;-72
2022/03/21 12:58:31;;;;;;;25.05;16.75;;;21.30;36.00;;;;;;5156370;28;20634;-75
2022/03/21 13:01:04;;;;;;;25.27;17.13;;;21.30;36.30;;;;;;5175680;28;20040;-74
2022/03/21 13:03:36;;;;;;;28.55;16.27;;;21.60;36.10;;;;;;5196056;28;20048;-76
2022/03/21 13:58:04;;;;;;;23.55;16.73;;;24.00;29.80;;;;;;5246399;27;21123;-75
2022/03/21 14:00:43;;;;;;;25.90;15.65;;;24.00;30.50;;;;;;5255191;27;20044;-73
2022/03/21 14:03:31;;;;;;;26.27;16.45;;;24.10;31.50;;;;;;5254001;28;20479;-74
2022/03/21 14:06:06;;;;;;;23.23;16.25;;;24.50;30.50;;;;;;5270981;27;20040;-75
2022/03/21 14:08:39;;;;;;;26.08;15.65;;;24.70;31.90;;;;;;5228473;28;20071;-75
2022/03/21 14:11:20;;;;;;;25.75;15.55;;;24.70;31.60;;;;;;5216643;28;20063;-75
2022/03/21 14:13:53;;;;;;;29.00;15.90;;;24.70;31.20;;;;;;5224003;28;20522;-77
2022/03/21 14:16:25;;;;;;;21.90;14.90;;;24.80;31.00;;;;;;5221308;28;20049;-73
2022/03/21 14:18:59;;;;;;;24.15;15.32;;;25.10;30.90;;;;;;5220003;28;20299;-73
2022/03/21 14:21:31;;;;;;;;;;;25.40;30.90;;;;;;5223138;28;20052;-72
2022/03/21 14:24:04;;;;;;;26.33;16.02;;;25.20;29.20;;;;;;5253309;27;19957;-73
2022/03/21 14:26:40;;;;;;;22.85;15.23;;;25.10;31.80;;;;;;5216824;28;20644;-73
2022/03/21 14:29:16;;;;;;;23.90;15.70;;;25.00;31.20;;;;;;5224432;28;20055;-74
2022/03/21 14:31:50;;;;;;;21.20;15.15;;;25.10;31.10;;;;;;5226835;28;20049;-73
2022/03/21 14:34:22;;;;;;;24.98;15.60;;;25.40;31.40;;;;;;5221245;28;20040;-75